Weather at Copenhagen Kastrup Airport

Public forecast

Using degrees Celsius for public forecast. Weather courtesy of forecast.io.

Current aviation weather report (METAR) for Copenhagen Kastrup Airport

Retrieved 2021/01/22 20:20 UTC (15 minutes ago):

EKCH 222020Z AUTO 23025KT 9999 OVC021/// 05/02 Q0989 TEMPO 22020G30KT

Aviation forecast (TAF) for Copenhagen Kastrup Airport

Retrieved 2021/01/22 18:30 UTC (2 hours ago):

TAF EKCH 221719Z 2218/2318 23020KT 9999 SCT025 TEMPO 2218/2224 23020G30KT BECMG 2300/2303 24010KT